Fonvind — JWYN — position and weather

sailwx.info

Track history (hours):
 
Tides and Currents Weather Stations Pressure Air Temp Water Temp Dewpoint Dewpoint Depression Visibility Wind Speed Wind Dir Waves Ship Positions

Fonvind

Last reported at 2015-Aug-28 09:32 UTC. Time now 2015-Aug-30 05:51 UTC.
Position N 66°14' E 012°20'.

Length 34 m; draft 3.5 m.

Type: Cargo ship. MMSI: 257322400.

Date/timePositionNaut miles runAvg speedWind from/ knotsBaromVisibWave heightAir tempDewpointWater temp
2015-Aug-28 09:32N 66°14' E 012°20'  
2015-Aug-24 07:12N 66°02' E 012°29'  
2015-Aug-20 13:31N 66°18' E 012°55'11 9.7
2015-Aug-20 12:22N 66°29' E 012°59'15 0.3
2015-Aug-18 16:28N 66°43' E 013°11'11 9.3
2015-Aug-18 15:14N 66°53' E 013°24'6 8.4
2015-Aug-18 14:33N 66°58' E 013°32'9 9.3
2015-Aug-18 13:33N 67°03' E 013°52'4 3.7
2015-Aug-18 12:31N 67°07' E 013°54'0 0.0
2015-Aug-18 11:28N 67°07' E 013°54'0 0.1
2015-Aug-18 10:30N 67°07' E 013°54'  
Track history (hours):
 
Tides and Currents Weather Stations Pressure Air Temp Water Temp Dewpoint Dewpoint Depression Visibility Wind Speed Wind Dir Waves Ship Positions

Fonvind

Last reported at 2015-Aug-28 09:32 UTC. Time now 2015-Aug-30 05:51 UTC.
Position N 66°14' E 012°20'.

Length 34 m; draft 3.5 m.

Type: Cargo ship. MMSI: 257322400.

Date/timePositionNaut miles runAvg speedWind from/ knotsBaromVisibWave heightAir tempDewpointWater temp
2015-Aug-28 09:32N 66°14' E 012°20'  
2015-Aug-24 07:12N 66°02' E 012°29'  
2015-Aug-20 13:31N 66°18' E 012°55'11 9.7
2015-Aug-20 12:22N 66°29' E 012°59'15 0.3
2015-Aug-18 16:28N 66°43' E 013°11'11 9.3
2015-Aug-18 15:14N 66°53' E 013°24'6 8.4
2015-Aug-18 14:33N 66°58' E 013°32'9 9.3
2015-Aug-18 13:33N 67°03' E 013°52'4 3.7
2015-Aug-18 12:31N 67°07' E 013°54'0 0.0
2015-Aug-18 11:28N 67°07' E 013°54'0 0.1
2015-Aug-18 10:30N 67°07' E 013°54'  

Dump ship's entire track history